Time;durP1;ratioP1;P1;durP2;ratioP2;P2;SDS_P1;SDS_P2;PMS_P1;PMS_P2;Temp;Humidity;BMP_temperature;BMP_pressure;BME280_temperature;BME280_humidity;BME280_pressure;Samples;Min_cycle;Max_cycle;Signal;HPM_P1;HPM_P2
2022/08/07 00:01:17;;;;;;;11.85;10.95;;;;;;;24.27;100.00;98980.81;5112752;28;20278;-58
2022/08/07 00:03:44;;;;;;;11.60;10.60;;;;;;;24.31;100.00;98982.19;5112837;28;20204;-57
2022/08/07 00:06:11;;;;;;;12.40;10.75;;;;;;;24.25;100.00;98974.84;5112511;28;20205;-58
2022/08/07 00:08:38;;;;;;;12.30;11.20;;;;;;;24.27;100.00;98975.50;5112404;28;20194;-57
2022/08/07 00:11:05;;;;;;;12.65;11.35;;;;;;;24.31;100.00;98976.91;5112495;28;20219;-56
2022/08/07 00:13:33;;;;;;;13.07;11.10;;;;;;;24.30;100.00;98983.19;5112484;28;20675;-57
2022/08/07 00:16:00;;;;;;;11.60;10.45;;;;;;;24.20;100.00;98977.88;5105961;28;20213;-58
2022/08/07 00:18:29;;;;;;;12.57;11.32;;;;;;;24.17;100.00;98979.97;5111895;28;20204;-58
2022/08/07 00:20:57;;;;;;;12.00;10.90;;;;;;;24.14;100.00;98980.28;5112049;28;20618;-58
2022/08/07 00:23:25;;;;;;;13.10;11.93;;;;;;;24.10;100.00;98971.75;5111605;28;20201;-58
2022/08/07 00:25:52;;;;;;;11.73;10.82;;;;;;;24.05;100.00;98970.50;5112138;28;20548;-58
2022/08/07 00:28:19;;;;;;;12.68;11.68;;;;;;;24.07;100.00;98966.72;5112007;28;20202;-58
2022/08/07 00:30:47;;;;;;;12.27;10.95;;;;;;;24.07;100.00;98971.19;5112098;28;20579;-58
2022/08/07 00:33:14;;;;;;;13.02;11.80;;;;;;;24.00;100.00;98963.00;5111908;28;20206;-57
2022/08/07 00:35:42;;;;;;;12.43;11.23;;;;;;;23.97;100.00;98968.56;5111737;28;20199;-57
2022/08/07 00:38:09;;;;;;;12.55;11.55;;;;;;;23.96;100.00;98966.91;5111980;28;20214;-58
2022/08/07 00:40:37;;;;;;;12.32;11.23;;;;;;;23.87;100.00;98946.56;5111273;28;20191;-58
2022/08/07 00:43:05;;;;;;;16.55;11.48;;;;;;;23.94;100.00;98963.53;5111583;28;20194;-57
2022/08/07 00:45:32;;;;;;;12.02;11.13;;;;;;;23.95;100.00;98961.72;5110592;28;20298;-58
2022/08/07 00:47:59;;;;;;;12.98;11.40;;;;;;;23.93;100.00;98971.66;5111689;28;20286;-58
2022/08/07 00:50:26;;;;;;;11.38;10.27;;;;;;;23.85;100.00;98967.88;5111379;28;20202;-58
2022/08/07 00:52:54;;;;;;;11.95;11.00;;;;;;;23.86;100.00;98969.56;5111388;28;20273;-58
2022/08/07 00:55:21;;;;;;;11.90;10.90;;;;;;;23.89;100.00;98966.66;5111500;28;20202;-57
2022/08/07 00:57:50;;;;;;;11.25;10.38;;;;;;;23.83;100.00;98961.88;5111701;28;20289;-58
2022/08/07 01:00:17;;;;;;;12.48;11.40;;;;;;;23.87;100.00;98965.94;5111591;28;20256;-58
2022/08/07 01:02:44;;;;;;;12.25;11.25;;;;;;;23.85;100.00;98964.41;5111346;28;20195;-58
2022/08/07 01:05:13;;;;;;;13.48;10.68;;;;;;;23.85;100.00;98975.00;5111201;28;20202;-57
2022/08/07 01:07:40;;;;;;;13.07;10.55;;;;;;;23.84;100.00;98970.69;5111151;28;20205;-57
2022/08/07 01:10:10;;;;;;;11.65;10.65;;;;;;;23.80;100.00;98977.25;5111531;28;20194;-57
2022/08/07 01:12:40;;;;;;;12.25;11.20;;;;;;;23.78;100.00;98973.91;5111115;28;20725;-57
2022/08/07 01:15:08;;;;;;;13.20;11.35;;;;;;;23.78;100.00;98976.56;5111015;28;20200;-56
2022/08/07 01:17:36;;;;;;;14.30;13.05;;;;;;;23.72;100.00;98980.59;5110816;28;20198;-57
2022/08/07 01:20:07;;;;;;;15.90;14.35;;;;;;;23.77;100.00;98966.94;5110888;28;20502;-58
2022/08/07 01:22:36;;;;;;;14.43;12.65;;;;;;;23.81;100.00;98970.97;5110878;28;20293;-57
2022/08/07 01:25:04;;;;;;;13.85;12.85;;;;;;;23.84;100.00;98962.72;5110935;28;20267;-57
2022/08/07 01:27:31;;;;;;;12.88;11.68;;;;;;;23.87;100.00;98963.28;5110883;28;20197;-58
2022/08/07 01:29:59;;;;;;;13.23;11.65;;;;;;;23.83;100.00;98959.25;5110706;28;20202;-57
2022/08/07 01:32:26;;;;;;;12.45;11.43;;;;;;;23.73;100.00;98966.38;5110647;28;20254;-56
2022/08/07 01:34:53;;;;;;;12.45;11.05;;;;;;;23.73;100.00;98966.38;5110544;28;20187;-57
2022/08/07 01:37:20;;;;;;;12.60;11.73;;;;;;;23.69;100.00;98962.34;5110783;28;20199;-57
2022/08/07 01:39:49;;;;;;;13.18;11.90;;;;;;;23.61;100.00;98956.88;5110626;28;25067;-58
2022/08/07 01:42:17;;;;;;;11.57;10.68;;;;;;;23.53;100.00;98944.34;5110335;28;25109;-58
2022/08/07 01:44:44;;;;;;;12.00;10.90;;;;;;;23.61;100.00;98959.53;5110394;28;20770;-57
2022/08/07 01:47:12;;;;;;;12.63;11.57;;;;;;;23.49;100.00;98958.81;5110230;28;20198;-57
2022/08/07 01:49:39;;;;;;;11.77;10.95;;;;;;;23.44;100.00;98957.56;5110405;27;20266;-57
2022/08/07 01:52:09;;;;;;;12.43;10.57;;;;;;;23.41;100.00;98958.66;5110376;28;20608;-57
2022/08/07 01:54:40;;;;;;;11.95;10.95;;;;;;;23.33;100.00;98953.25;5110392;28;20205;-59
2022/08/07 01:57:13;;;;;;;10.88;10.05;;;;;;;23.29;100.00;98945.69;5109921;28;20582;-59
2022/08/07 01:59:46;;;;;;;11.52;10.68;;;;;;;23.38;100.00;98964.25;5110329;28;20194;-58
2022/08/07 02:02:19;;;;;;;14.50;11.20;;;;;;;23.25;100.00;98939.03;5110388;28;20664;-57
2022/08/07 02:04:53;;;;;;;11.75;10.68;;;;;;;23.32;100.00;98958.66;5110175;28;20191;-57
2022/08/07 02:07:23;;;;;;;11.02;10.15;;;;;;;23.37;100.00;98953.78;5110439;28;20587;-58
2022/08/07 02:09:53;;;;;;;12.18;10.70;;;;;;;23.35;100.00;98948.66;5110312;28;20392;-58
2022/08/07 02:12:23;;;;;;;11.98;10.82;;;;;;;23.25;100.00;98952.25;5110276;28;20228;-58
2022/08/07 02:14:55;;;;;;;11.95;10.75;;;;;;;23.23;100.00;98952.41;5110456;28;20808;-58
2022/08/07 02:17:23;;;;;;;11.63;10.63;;;;;;;23.18;100.00;98951.97;5110182;28;20230;-57
2022/08/07 02:19:53;;;;;;;12.55;11.25;;;;;;;23.15;100.00;98955.72;5110197;28;20195;-58
2022/08/07 02:22:22;;;;;;;11.70;10.88;;;;;;;23.07;100.00;98947.63;5110123;28;20217;-58
2022/08/07 02:24:52;;;;;;;11.40;10.35;;;;;;;23.07;100.00;98947.63;5110256;28;20568;-59
2022/08/07 02:27:23;;;;;;;12.15;10.93;;;;;;;23.01;100.00;98950.00;5110122;28;20306;-58
2022/08/07 02:29:51;;;;;;;11.25;10.45;;;;;;;23.07;100.00;98952.91;5110055;28;20727;-58
2022/08/07 02:32:20;;;;;;;11.15;10.32;;;;;;;23.11;100.00;98958.78;5109888;28;20222;-58
2022/08/07 02:34:48;;;;;;;12.70;11.45;;;;;;;23.12;100.00;98949.88;5102988;28;20209;-57
2022/08/07 02:37:16;;;;;;;11.63;10.73;;;;;;;23.15;100.00;98954.88;5097090;28;20734;-57
2022/08/07 02:39:46;;;;;;;11.18;10.20;;;;;;;23.26;100.00;98956.56;5098438;28;20195;-56
2022/08/07 02:42:14;;;;;;;11.45;10.65;;;;;;;23.28;100.00;98941.38;5097073;28;20238;-57
2022/08/07 02:44:44;;;;;;;11.52;10.60;;;;;;;23.23;100.00;98951.56;5098829;28;20193;-55
2022/08/07 02:47:12;;;;;;;11.00;10.18;;;;;;;23.21;100.00;98945.56;5099089;28;20199;-57
2022/08/07 02:49:39;;;;;;;13.30;10.50;;;;;;;23.24;100.00;98950.59;5097589;28;20191;-56
2022/08/07 02:52:10;;;;;;;11.55;10.35;;;;;;;23.15;100.00;98955.72;5098006;28;20601;-57
2022/08/07 02:54:40;;;;;;;11.30;10.40;;;;;;;23.13;100.00;98949.75;5099161;28;20197;-57
2022/08/07 02:57:12;;;;;;;10.95;10.15;;;;;;;23.18;100.00;98947.50;5098419;28;20191;-58
2022/08/07 02:59:45;;;;;;;11.07;10.20;;;;;;;23.22;100.00;98956.03;5097327;28;20202;-56
2022/08/07 03:02:14;;;;;;;11.70;10.45;;;;;;;23.27;100.00;98951.13;5097267;28;21060;-57
2022/08/07 03:04:42;;;;;;;11.50;10.50;;;;;;;23.30;100.00;98955.31;5098795;28;20197;-57
2022/08/07 03:07:10;;;;;;;10.45;9.55;;;;;;;23.35;100.00;98953.94;5098586;28;20191;-57
2022/08/07 03:09:38;;;;;;;11.68;10.60;;;;;;;23.38;100.00;98958.09;5099616;28;20197;-57
2022/08/07 03:12:07;;;;;;;10.63;9.93;;;;;;;23.39;100.00;98957.13;5101741;28;20790;-58
2022/08/07 03:14:35;;;;;;;10.57;9.85;;;;;;;23.40;100.00;98959.66;5102976;28;20199;-60
2022/08/07 03:17:03;;;;;;;10.85;9.98;;;;;;;23.37;100.00;98959.06;5101742;28;20187;-56
2022/08/07 03:19:31;;;;;;;10.50;9.73;;;;;;;23.28;100.00;98962.56;5101008;28;20194;-57
2022/08/07 03:21:59;;;;;;;10.73;9.82;;;;;;;23.24;100.00;98961.19;5100812;28;20217;-56
2022/08/07 03:24:27;;;;;;;10.70;9.98;;;;;;;23.13;100.00;98959.50;5101752;28;20655;-57
2022/08/07 03:26:54;;;;;;;10.27;9.38;;;;;;;23.13;100.00;98960.34;5103503;28;20194;-57
2022/08/07 03:29:22;;;;;;;10.10;9.43;;;;;;;23.10;100.00;98963.25;5106388;28;20264;-58
2022/08/07 03:31:51;;;;;;;11.07;10.15;;;;;;;23.17;100.00;98969.66;5099652;28;20680;-59
2022/08/07 03:34:20;;;;;;;11.32;10.35;;;;;;;23.08;100.00;98972.28;5102789;28;20726;-57
2022/08/07 03:36:48;;;;;;;10.60;9.90;;;;;;;23.02;100.00;98975.50;5104343;28;20222;-58
2022/08/07 03:39:17;;;;;;;11.07;10.10;;;;;;;22.99;100.00;98966.00;5104454;28;20229;-58
2022/08/07 03:41:44;;;;;;;11.05;10.15;;;;;;;22.99;100.00;98976.59;5100822;28;20234;-58
2022/08/07 03:44:12;;;;;;;10.98;10.27;;;;;;;22.99;100.00;98967.81;5094682;28;20227;-57
2022/08/07 03:46:40;;;;;;;10.45;9.75;;;;;;;23.01;100.00;98965.88;5091749;28;20222;-57
2022/08/07 03:49:09;;;;;;;11.07;10.27;;;;;;;23.02;100.00;98972.84;5091919;28;20268;-58
2022/08/07 03:51:38;;;;;;;11.50;10.32;;;;;;;23.03;100.00;98972.69;5092122;28;20273;-57
2022/08/07 03:54:05;;;;;;;11.15;10.40;;;;;;;23.09;100.00;98974.81;5091747;28;20269;-58
2022/08/07 03:56:35;;;;;;;10.50;9.70;;;;;;;23.17;100.00;98974.94;5091964;28;20326;-58
2022/08/07 03:59:04;;;;;;;15.07;10.43;;;;;;;23.36;100.00;98978.63;5091183;28;20307;-58
2022/08/07 04:01:32;;;;;;;10.88;10.07;;;;;;;23.39;100.00;98970.38;5091659;28;20261;-56
2022/08/07 04:04:00;;;;;;;12.10;10.73;;;;;;;23.44;100.00;98978.75;5091346;27;20223;-58
2022/08/07 04:06:27;;;;;;;11.30;10.50;;;;;;;23.76;100.00;98983.81;5091732;28;20219;-58
2022/08/07 04:08:56;;;;;;;10.65;9.75;;;;;;;24.32;98.36;98983.03;5091328;28;20223;-58
2022/08/07 04:11:23;;;;;;;11.07;10.27;;;;;;;24.50;96.24;98983.94;5091629;28;20305;-58
2022/08/07 04:13:51;;;;;;;11.38;10.50;;;;;;;24.47;95.91;98990.41;5105167;28;20610;-59
2022/08/07 04:16:18;;;;;;;11.05;9.80;;;;;;;24.38;96.30;98988.59;5111775;28;20246;-58
2022/08/07 04:18:46;;;;;;;11.15;10.15;;;;;;;24.30;96.73;98980.53;5111296;27;20226;-57
2022/08/07 04:21:14;;;;;;;11.13;10.32;;;;;;;24.30;96.92;98988.50;5111857;28;20375;-57
2022/08/07 04:23:41;;;;;;;10.63;9.77;;;;;;;24.20;97.81;98980.53;5111635;28;20669;-58
2022/08/07 04:26:10;;;;;;;11.80;10.65;;;;;;;24.11;98.44;98986.69;5111842;28;20218;-57
2022/08/07 04:28:37;;;;;;;11.40;10.43;;;;;;;24.03;99.60;98983.94;5110748;28;20226;-59
2022/08/07 04:31:04;;;;;;;11.30;10.43;;;;;;;23.94;99.77;98990.06;5111498;28;20277;-58
2022/08/07 04:33:32;;;;;;;11.27;10.32;;;;;;;23.84;100.00;98979.47;5111089;28;20232;-59
2022/08/07 04:35:59;;;;;;;10.93;10.23;;;;;;;23.85;100.00;98988.25;5111743;28;20719;-57
2022/08/07 04:38:26;;;;;;;12.00;10.93;;;;;;;23.79;100.00;98989.66;5106278;28;20312;-55
2022/08/07 04:40:53;;;;;;;11.68;10.65;;;;;;;23.82;100.00;98968.16;5090098;28;20253;-56
2022/08/07 04:43:26;;;;;;;10.18;9.48;;;;;;;24.02;99.74;98986.72;5090314;28;20258;-54
2022/08/07 04:46:01;;;;;;;10.30;9.25;;;;;;;24.12;99.53;98990.19;5091273;28;20199;-56
2022/08/07 04:48:35;;;;;;;11.18;10.32;;;;;;;24.20;98.97;98991.13;5091431;28;20199;-55
2022/08/07 04:51:08;;;;;;;10.52;9.77;;;;;;;24.35;97.71;98996.88;5091409;28;20256;-55
2022/08/07 04:53:44;;;;;;;11.10;10.10;;;;;;;24.42;97.01;98997.94;5091120;28;20306;-56
2022/08/07 04:56:18;;;;;;;10.68;9.90;;;;;;;24.53;96.04;99010.19;5090993;28;20199;-57
2022/08/07 04:58:52;;;;;;;10.48;9.48;;;;;;;24.55;95.66;99006.44;5090986;28;20194;-56
2022/08/07 05:01:24;;;;;;;10.70;9.90;;;;;;;24.58;95.72;99011.44;5090906;28;20209;-56
2022/08/07 05:04:01;;;;;;;10.85;10.05;;;;;;;24.65;95.38;99005.56;5090876;28;20196;-55
2022/08/07 05:06:35;;;;;;;10.02;9.13;;;;;;;24.73;94.94;98998.53;5091001;28;20194;-57
2022/08/07 05:09:05;;;;;;;10.65;9.95;;;;;;;24.82;94.35;99002.16;5090711;28;20195;-58
2022/08/07 05:11:35;;;;;;;11.73;10.70;;;;;;;24.87;93.83;99015.78;5090815;28;20282;-58
2022/08/07 05:14:09;;;;;;;11.10;10.10;;;;;;;24.93;92.82;99002.81;5090821;28;20618;-59
2022/08/07 05:16:38;;;;;;;11.30;10.45;;;;;;;24.92;93.31;99008.25;5090650;28;20702;-58
2022/08/07 05:19:10;;;;;;;11.40;10.70;;;;;;;24.93;93.16;99013.44;5090625;28;20278;-57
2022/08/07 05:21:38;;;;;;;11.00;10.23;;;;;;;25.05;92.59;99021.22;5090578;28;20210;-58
2022/08/07 05:24:11;;;;;;;11.23;10.13;;;;;;;25.18;92.01;99030.47;5090801;28;20653;-56
2022/08/07 05:26:38;;;;;;;10.63;9.88;;;;;;;26.08;87.75;99021.56;5090509;28;20195;-57
2022/08/07 05:29:10;;;;;;;11.80;10.80;;;;;;;26.62;83.41;99028.47;5090382;28;20195;-59
2022/08/07 05:31:40;;;;;;;12.48;11.32;;;;;;;26.91;81.46;99029.94;5089828;28;20740;-56
2022/08/07 05:34:09;;;;;;;12.65;11.30;;;;;;;26.95;80.84;99034.84;5090727;28;20629;-58
2022/08/07 05:36:38;;;;;;;12.35;11.15;;;;;;;26.97;81.13;99034.69;5106224;28;20221;-57
2022/08/07 05:39:06;;;;;;;13.85;12.65;;;;;;;26.99;80.55;99038.00;5110667;28;20195;-58
2022/08/07 05:41:33;;;;;;;12.55;11.32;;;;;;;27.01;80.88;99038.66;5110669;28;20790;-57
2022/08/07 05:44:02;;;;;;;13.88;12.68;;;;;;;26.85;81.75;99034.09;5110686;28;20281;-58
2022/08/07 05:46:31;;;;;;;13.80;12.52;;;;;;;26.67;83.19;99034.16;5110409;28;20294;-58
2022/08/07 05:48:58;;;;;;;13.35;12.35;;;;;;;26.59;83.84;99039.44;5110367;28;20230;-59
2022/08/07 05:51:25;;;;;;;15.88;14.40;;;;;;;26.52;84.92;99034.91;5110441;28;20290;-58
2022/08/07 05:53:52;;;;;;;14.85;13.45;;;;;;;26.49;84.87;99041.38;5110393;28;20605;-58
2022/08/07 05:56:21;;;;;;;14.70;13.20;;;;;;;26.56;84.30;99039.75;5110418;28;20199;-59
2022/08/07 05:58:49;;;;;;;16.02;14.60;;;;;;;27.02;82.46;99056.31;5109958;28;20222;-59
2022/08/07 06:01:17;;;;;;;15.02;13.50;;;;;;;27.69;78.77;99060.72;5110184;28;20203;-58
2022/08/07 06:03:50;;;;;;;13.55;12.15;;;;;;;28.80;73.36;99059.22;5109099;28;20191;-59
2022/08/07 06:06:18;;;;;;;13.43;12.13;;;;;;;30.15;67.06;99069.56;5096564;28;20198;-58
2022/08/07 06:08:46;;;;;;;11.60;10.63;;;;;;;31.37;60.21;99060.28;5099349;28;20203;-59
2022/08/07 06:11:13;;;;;;;12.88;11.88;;;;;;;32.41;55.86;99072.31;5097604;28;20195;-59
2022/08/07 06:13:40;;;;;;;11.80;11.00;;;;;;;33.37;52.49;99076.06;5098485;28;20600;-59
2022/08/07 06:16:08;;;;;;;11.65;10.55;;;;;;;35.26;46.90;99070.97;5099701;28;20205;-60
2022/08/07 06:18:36;;;;;;;12.43;10.60;;;;;;;36.75;43.47;99077.72;5098115;28;20191;-64
2022/08/07 06:21:05;;;;;;;11.02;10.30;;;;;;;37.56;40.06;99074.72;5097638;28;20195;-65
2022/08/07 06:23:32;;;;;;;10.57;9.52;;;;;;;38.53;38.71;99084.31;5097702;28;20183;-64
2022/08/07 06:26:00;;;;;;;12.07;10.77;;;;;;;39.11;37.55;99064.47;5098257;28;20550;-65
2022/08/07 06:28:27;;;;;;;8.70;8.10;;;;;;;39.87;35.31;99082.31;5099459;28;20198;-63
2022/08/07 06:30:54;;;;;;;8.48;7.78;;;;;;;39.66;35.68;99074.81;5099920;28;20194;-64
2022/08/07 06:33:22;;;;;;;8.63;8.20;;;;;;;39.89;34.54;99083.72;5106145;28;20680;-64
2022/08/07 06:35:49;;;;;;;10.50;8.00;;;;;;;39.56;34.24;99079.00;5107539;28;20209;-66
2022/08/07 06:38:17;;;;;;;8.88;8.15;;;;;;;40.06;33.63;99083.75;5108987;28;20744;-64
2022/08/07 06:40:51;;;;;;;217.85;56.05;;;;;;;40.33;34.34;99085.84;5108411;28;20255;-63
2022/08/07 06:43:21;;;;;;;9.30;8.50;;;;;;;39.45;35.36;99076.34;5110196;28;20206;-63
2022/08/07 06:45:48;;;;;;;8.68;8.10;;;;;;;38.83;35.29;99093.16;5114138;28;20193;-63
2022/08/07 06:48:15;;;;;;;9.75;8.95;;;;;;;38.98;35.39;99078.31;5114024;28;20276;-63
2022/08/07 06:50:44;;;;;;;8.50;7.88;;;;;;;38.97;34.54;99076.66;5113031;28;20220;-65
2022/08/07 06:53:13;;;;;;;9.05;7.93;;;;;;;38.98;34.67;99072.88;5113214;28;20228;-63
2022/08/07 06:55:44;;;;;;;7.97;7.38;;;;;;;39.45;34.75;99087.19;5095209;28;20205;-64
2022/08/07 06:58:12;;;;;;;8.18;7.47;;;;;;;39.38;34.16;99084.59;5092737;28;20199;-63
2022/08/07 07:00:41;;;;;;;7.38;6.97;;;;;;;38.84;33.72;99088.56;5091101;28;20223;-64
2022/08/07 07:03:09;;;;;;;8.05;7.60;;;;;;;39.25;34.08;99073.19;5100565;28;20301;-63
2022/08/07 07:05:36;;;;;;;9.00;8.45;;;;;;;39.22;33.67;99085.34;5112338;28;20210;-63
2022/08/07 07:08:04;;;;;;;8.75;8.15;;;;;;;38.79;34.73;99085.75;5112563;28;20226;-63
2022/08/07 07:10:33;;;;;;;8.50;7.90;;;;;;;38.93;34.09;99091.75;5112836;28;20225;-62
2022/08/07 07:13:07;;;;;;;8.43;7.93;;;;;;;38.43;35.11;99092.19;5112767;28;20214;-62
2022/08/07 07:15:41;;;;;;;8.43;7.95;;;;;;;38.65;35.87;99089.75;5112889;28;20213;-62
2022/08/07 07:18:14;;;;;;;9.00;8.23;;;;;;;38.85;35.65;99095.63;5112170;28;20920;-62
2022/08/07 07:20:47;;;;;;;9.23;7.65;;;;;;;39.29;34.67;99096.88;5112627;28;20222;-62
2022/08/07 07:23:15;;;;;;;9.75;8.60;;;;;;;40.11;33.49;99093.88;5112759;28;20321;-64
2022/08/07 07:25:44;;;;;;;9.30;8.13;;;;;;;40.73;32.27;99102.84;5112490;28;20236;-63
2022/08/07 07:28:18;;;;;;;9.00;8.10;;;;;;;40.95;31.21;99100.97;5112704;28;20714;-63
2022/08/07 07:30:51;;;;;;;8.40;7.80;;;;;;;40.29;31.42;99101.84;5112662;28;20224;-63
2022/08/07 07:33:20;;;;;;;8.73;7.88;;;;;;;38.72;32.44;99096.69;5101536;28;20230;-63
2022/08/07 07:35:50;;;;;;;9.30;8.45;;;;;;;36.38;35.36;99089.25;5091935;28;20211;-62
2022/08/07 07:38:20;;;;;;;9.55;8.85;;;;;;;36.12;36.40;99094.03;5092069;28;20264;-63
2022/08/07 07:40:49;;;;;;;9.48;8.75;;;;;;;37.41;35.25;99094.06;5091552;28;20219;-63
2022/08/07 07:43:18;;;;;;;8.75;8.02;;;;;;;38.94;32.31;99110.53;5091997;28;20214;-63
2022/08/07 07:45:46;;;;;;;7.40;6.72;;;;;;;39.87;30.07;99110.31;5091507;28;20214;-63
2022/08/07 07:48:17;;;;;;;9.02;8.20;;;;;;;40.75;29.23;99116.19;5091630;28;20310;-63
2022/08/07 07:50:47;;;;;;;8.10;7.60;;;;;;;41.41;28.25;99120.66;5105663;28;20217;-63
2022/08/07 07:53:16;;;;;;;7.50;6.82;;;;;;;40.75;28.64;99106.13;5110880;28;20209;-63
2022/08/07 07:55:43;;;;;;;7.78;7.28;;;;;;;39.23;30.78;99111.44;5110212;28;20198;-63
2022/08/07 07:58:11;;;;;;;8.40;7.80;;;;;;;37.83;32.51;99107.69;5103916;28;20217;-64
2022/08/07 08:00:41;;;;;;;8.80;8.30;;;;;;;36.47;35.27;99099.78;5089985;28;20237;-62
2022/08/07 08:03:11;;;;;;;8.82;8.15;;;;;;;36.61;35.49;99098.63;5090115;28;20273;-63
2022/08/07 08:05:40;;;;;;;9.18;8.55;;;;;;;37.83;33.47;99103.09;5098859;28;20695;-64
2022/08/07 08:08:10;;;;;;;9.05;7.90;;;;;;;39.15;31.68;99107.22;5089851;28;20221;-64
2022/08/07 08:10:38;;;;;;;7.78;7.22;;;;;;;39.56;30.14;99092.59;5094933;28;20309;-61
2022/08/07 08:13:07;;;;;;;9.25;8.55;;;;;;;40.00;30.05;99109.19;5089737;28;20576;-61
2022/08/07 08:15:40;;;;;;;9.57;8.77;;;;;;;40.43;29.51;99113.19;5089354;28;20215;-61
2022/08/07 08:18:10;;;;;;;8.65;8.00;;;;;;;40.92;28.79;99108.81;5100546;28;20229;-60
2022/08/07 08:20:39;;;;;;;9.27;8.60;;;;;;;40.82;29.04;99101.34;5098564;28;20611;-61
2022/08/07 08:28:44;;;;;;;7.90;7.40;;;;;;;40.64;28.22;99098.84;5093519;28;20252;-63
2022/08/07 08:31:17;;;;;;;8.73;8.13;;;;;;;40.01;29.16;99094.53;5099178;28;20246;-64
2022/08/07 08:33:47;;;;;;;9.93;9.13;;;;;;;39.31;29.87;99100.19;5098431;28;20222;-63
2022/08/07 08:36:16;;;;;;;8.73;8.13;;;;;;;38.92;30.48;99104.50;5099638;28;20678;-61
2022/08/07 08:38:45;;;;;;;9.20;8.40;;;;;;;38.93;30.21;99108.03;5088207;28;20226;-61
2022/08/07 08:41:18;;;;;;;10.00;8.75;;;;;;;38.81;30.76;99100.72;5097281;28;20232;-62
2022/08/07 08:43:57;;;;;;;9.38;8.63;;;;;;;39.32;30.69;99096.41;5100679;28;20610;-61
2022/08/07 08:46:36;;;;;;;10.55;9.90;;;;;;;39.06;30.44;99092.34;5097652;28;20218;-61
2022/08/07 08:49:10;;;;;;;9.88;9.18;;;;;;;39.73;29.38;99091.81;5102133;28;20198;-61
2022/08/07 08:51:43;;;;;;;8.35;7.68;;;;;;;39.56;30.18;99086.31;5098660;28;20216;-60
2022/08/07 08:54:20;;;;;;;8.10;7.57;;;;;;;38.71;30.81;99084.22;5097158;28;20234;-59
2022/08/07 08:56:51;;;;;;;8.88;8.38;;;;;;;38.50;30.96;99092.91;5090039;28;20190;-61
2022/08/07 08:59:26;;;;;;;8.65;6.93;;;;;;;38.07;30.21;99083.16;5090172;28;20248;-63
2022/08/07 09:02:05;;;;;;;6.97;6.32;;;;;;;37.50;30.62;99086.44;5090424;28;20198;-63
2022/08/07 09:04:43;;;;;;;7.15;6.60;;;;;;;37.74;30.75;99083.63;5089716;28;20201;-60
2022/08/07 09:07:16;;;;;;;7.00;6.50;;;;;;;37.12;31.71;99082.09;5088848;28;20205;-59
2022/08/07 09:09:55;;;;;;;6.70;6.20;;;;;;;36.70;31.12;99072.97;5093908;28;20201;-60
2022/08/07 09:12:37;;;;;;;6.80;6.30;;;;;;;37.39;30.96;99063.66;5110562;27;20255;-60
2022/08/07 09:15:24;;;;;;;6.25;5.85;;;;;;;37.48;29.82;99072.28;5109571;28;20226;-59
2022/08/07 09:18:06;;;;;;;6.78;6.10;;;;;;;37.59;29.59;99069.63;5109584;28;20194;-61
2022/08/07 09:20:47;;;;;;;7.15;6.75;;;;;;;38.09;29.98;99067.50;5109949;28;20575;-61
2022/08/07 09:23:30;;;;;;;6.70;6.25;;;;;;;38.18;29.39;99067.16;5109630;28;20201;-60
2022/08/07 09:26:10;;;;;;;6.15;5.75;;;;;;;38.74;27.95;99072.88;5109985;28;20194;-60
2022/08/07 09:28:40;;;;;;;5.50;5.20;;;;;;;38.37;28.14;99077.69;5110191;28;20293;-61
2022/08/07 09:31:16;;;;;;;5.85;5.25;;;;;;;37.79;28.89;99072.13;5110022;28;20285;-59
2022/08/07 09:33:59;;;;;;;5.53;5.13;;;;;;;37.46;29.63;99064.44;5109609;28;20284;-60
2022/08/07 09:36:34;;;;;;;5.60;5.30;;;;;;;36.56;30.97;99055.22;5109967;28;20273;-60
2022/08/07 09:39:16;;;;;;;5.55;5.25;;;;;;;35.52;32.55;99053.00;5109974;28;20197;-60
2022/08/07 09:41:51;;;;;;;6.03;5.43;;;;;;;34.72;33.67;99054.28;5109326;28;20240;-61
2022/08/07 09:44:27;;;;;;;6.45;5.85;;;;;;;34.14;34.87;99056.78;5109897;28;20762;-60
2022/08/07 09:47:07;;;;;;;6.47;6.15;;;;;;;34.07;34.64;99053.25;5109636;28;20216;-61
2022/08/07 09:49:49;;;;;;;6.63;6.00;;;;;;;34.50;34.25;99051.00;5101791;28;20258;-60
2022/08/07 09:52:23;;;;;;;5.93;5.35;;;;;;;34.12;34.19;99050.75;5089173;28;20233;-60
2022/08/07 09:54:56;;;;;;;5.68;5.28;;;;;;;34.38;34.27;99045.41;5089671;28;20241;-61
2022/08/07 09:58:05;;;;;;;5.97;5.47;;;;;;;34.59;33.41;99037.09;5088978;28;25101;-61
2022/08/07 10:00:50;;;;;;;6.18;5.38;;;;;;;35.17;33.12;99036.34;5079766;28;25118;-60
2022/08/07 10:03:45;;;;;;;7.28;5.53;;;;;;;35.94;32.01;99033.44;5089445;28;25157;-58
2022/08/07 10:06:23;;;;;;;5.38;5.05;;;;;;;36.65;30.61;99037.63;5089539;28;20627;-60
2022/08/07 10:09:10;;;;;;;7.85;5.35;;;;;;;35.95;30.98;99024.28;5089637;28;20229;-61
2022/08/07 10:12:03;;;;;;;5.28;4.97;;;;;;;36.32;30.85;99035.25;5089258;28;20288;-60
2022/08/07 10:14:57;;;;;;;5.15;4.85;;;;;;;36.95;30.04;99024.22;5080860;28;20635;-61
2022/08/07 10:17:46;;;;;;;5.38;4.97;;;;;;;37.44;28.69;99024.03;5088894;28;20229;-61
2022/08/07 10:20:22;;;;;;;4.78;4.47;;;;;;;37.58;28.34;99013.03;5089106;28;20323;-64
2022/08/07 10:23:11;;;;;;;5.00;4.70;;;;;;;36.96;29.20;99017.75;5088877;28;20934;-63
2022/08/07 10:25:53;;;;;;;4.85;4.65;;;;;;;36.98;29.03;99021.91;5088779;28;20232;-60
2022/08/07 10:28:37;;;;;;;5.30;5.00;;;;;;;37.07;29.42;99025.13;5088640;28;20232;-65
2022/08/07 10:31:18;;;;;;;4.90;4.50;;;;;;;36.67;28.60;99017.44;5089075;28;20231;-63
2022/08/07 10:34:02;;;;;;;5.35;4.38;;;;;;;35.62;29.56;99010.16;5089089;28;20231;-64
2022/08/07 10:36:40;;;;;;;10.20;4.47;;;;;;;35.62;29.38;99012.88;5089152;28;20235;-63
2022/08/07 10:39:18;;;;;;;4.10;3.90;;;;;;;35.30;29.77;99014.72;5089058;28;20232;-63
2022/08/07 10:41:55;;;;;;;4.28;4.07;;;;;;;34.70;29.78;98997.03;5088243;28;20258;-65
2022/08/07 10:44:32;;;;;;;4.60;4.30;;;;;;;34.83;30.31;99013.22;5088734;28;20225;-63
2022/08/07 10:47:07;;;;;;;4.57;4.18;;;;;;;34.80;30.11;99005.53;5088801;28;25099;-65
2022/08/07 10:49:40;;;;;;;4.68;4.45;;;;;;;34.91;30.12;99002.19;5088841;28;20228;-63
2022/08/07 10:52:14;;;;;;;5.25;4.95;;;;;;;34.70;30.66;99000.56;5088861;28;20229;-62
2022/08/07 10:54:45;;;;;;;4.20;4.00;;;;;;;34.89;30.47;99005.09;5088804;28;20237;-63
2022/08/07 10:57:25;;;;;;;4.82;4.45;;;;;;;35.06;29.86;98996.53;5088381;28;20241;-59
2022/08/07 11:00:03;;;;;;;4.53;4.18;;;;;;;34.68;30.21;99012.59;5088666;28;25065;-59
2022/08/07 11:02:37;;;;;;;4.97;4.68;;;;;;;34.53;30.34;99002.91;5088429;28;25082;-59
2022/08/07 11:05:36;;;;;;;4.30;4.10;;;;;;;34.65;30.11;98988.78;5088564;28;25138;-63
2022/08/07 11:08:12;;;;;;;4.53;4.32;;;;;;;34.68;30.57;98993.72;5084454;28;25074;-60
2022/08/07 11:10:43;;;;;;;5.10;4.80;;;;;;;34.75;30.21;98989.16;5088742;28;20228;-60
2022/08/07 11:13:18;;;;;;;5.75;5.03;;;;;;;34.52;31.00;98986.94;5088313;28;20644;-61
2022/08/07 11:15:50;;;;;;;4.20;4.00;;;;;;;34.60;31.32;98995.63;5087916;28;25059;-62
2022/08/07 11:18:21;;;;;;;4.50;4.30;;;;;;;34.73;30.87;98981.28;5088277;28;25074;-60
2022/08/07 11:20:54;;;;;;;4.35;4.15;;;;;;;34.90;30.44;98982.47;5088579;28;20609;-63
2022/08/07 11:23:31;;;;;;;4.65;4.45;;;;;;;34.98;30.48;98984.13;5088635;28;25076;-64
2022/08/07 11:26:06;;;;;;;4.20;3.83;;;;;;;34.95;30.18;98973.75;5088591;28;20359;-64
2022/08/07 11:28:42;;;;;;;8.05;4.90;;;;;;;34.78;30.36;98975.25;5088501;28;20223;-65
2022/08/07 11:31:19;;;;;;;4.68;4.40;;;;;;;34.55;30.28;98981.94;5092354;28;20306;-63
2022/08/07 11:33:54;;;;;;;4.55;4.18;;;;;;;34.54;30.09;98972.19;5091962;28;20305;-65
2022/08/07 11:36:40;;;;;;;4.20;4.00;;;;;;;34.65;30.15;98976.13;5104811;28;20608;-65
2022/08/07 11:39:17;;;;;;;4.70;4.40;;;;;;;34.92;29.26;98974.19;5112361;28;20253;-66
2022/08/07 11:41:51;;;;;;;4.50;4.30;;;;;;;35.14;28.89;98966.59;5106388;28;20766;-64
2022/08/07 11:44:32;;;;;;;4.32;4.13;;;;;;;35.07;28.88;98950.47;5098608;28;20223;-65
2022/08/07 11:47:08;;;;;;;4.78;4.25;;;;;;;35.20;28.59;98971.97;5091594;28;20306;-65